createdAt,value
2016-11-06T00:00:25.071Z,937.48
2016-11-06T00:01:38.723Z,937.44
2016-11-06T00:02:52.276Z,937.49
2016-11-06T00:04:05.292Z,937.42
2016-11-06T00:05:18.860Z,937.39
2016-11-06T00:06:32.144Z,937.42
2016-11-06T00:07:45.725Z,937.43
2016-11-06T00:08:59.094Z,937.4
2016-11-06T00:10:12.281Z,937.37
2016-11-06T00:11:25.926Z,937.37
2016-11-06T00:12:39.461Z,937.34
2016-11-06T00:13:52.548Z,937.35
2016-11-06T00:15:06.041Z,937.37
2016-11-06T00:16:19.070Z,937.34
2016-11-06T00:17:32.599Z,937.31
2016-11-06T00:18:46.582Z,937.34
2016-11-06T00:20:00.139Z,937.32
2016-11-06T00:21:13.155Z,937.36
2016-11-06T00:22:26.481Z,937.37
2016-11-06T00:23:39.082Z,937.42
2016-11-06T00:24:52.267Z,937.43
2016-11-06T00:26:05.283Z,937.46
2016-11-06T00:27:18.850Z,937.45
2016-11-06T00:28:32.416Z,937.48
2016-11-06T00:29:44.912Z,937.53
2016-11-06T00:30:58.690Z,937.51
2016-11-06T00:32:11.230Z,937.45
2016-11-06T00:33:24.844Z,937.47
2016-11-06T00:34:38.463Z,937.46
2016-11-06T00:35:52.115Z,937.51
2016-11-06T00:37:05.649Z,937.53
2016-11-06T00:38:19.661Z,937.49
2016-11-06T00:39:33.466Z,937.53
2016-11-06T00:40:46.514Z,937.53
2016-11-06T00:42:00.074Z,937.55
2016-11-06T00:43:13.645Z,937.58
2016-11-06T00:44:27.223Z,937.5
2016-11-06T00:45:40.023Z,937.58
2016-11-06T00:46:53.603Z,937.55
2016-11-06T00:48:06.702Z,937.58
2016-11-06T00:49:20.302Z,937.59
2016-11-06T00:50:33.884Z,937.58
2016-11-06T00:51:46.925Z,937.61
2016-11-06T00:53:00.500Z,937.62
2016-11-06T00:54:13.532Z,937.57
2016-11-06T00:55:27.093Z,937.65
2016-11-06T00:56:40.673Z,937.65
2016-11-06T00:57:53.749Z,937.67
2016-11-06T00:59:07.367Z,937.65
2016-11-06T01:00:51.505Z,937.65
2016-11-06T01:02:05.131Z,937.61
2016-11-06T01:03:18.455Z,937.64
2016-11-06T01:04:31.534Z,937.59
2016-11-06T01:05:45.452Z,937.58
2016-11-06T01:06:58.482Z,937.64
2016-11-06T01:08:11.519Z,937.63
2016-11-06T01:09:24.566Z,937.62
2016-11-06T01:10:38.161Z,937.62
2016-11-06T01:11:51.749Z,937.63
2016-11-06T01:13:04.824Z,937.56
2016-11-06T01:14:17.813Z,937.57
2016-11-06T01:15:31.397Z,937.56
2016-11-06T01:16:44.492Z,937.53
2016-11-06T01:17:58.022Z,937.51
2016-11-06T01:19:11.602Z,937.5
2016-11-06T01:20:25.331Z,937.58
2016-11-06T01:21:38.330Z,937.58
2016-11-06T01:22:51.895Z,937.57
2016-11-06T01:24:05.548Z,937.57
2016-11-06T01:25:18.733Z,937.52
2016-11-06T01:26:32.274Z,937.51
2016-11-06T01:27:44.780Z,937.48
2016-11-06T01:28:58.331Z,937.45
2016-11-06T01:30:11.924Z,937.48
2016-11-06T01:31:25.827Z,937.42
2016-11-06T01:32:39.401Z,937.37
2016-11-06T01:33:52.997Z,937.33
2016-11-06T01:35:06.075Z,937.34
2016-11-06T01:36:19.619Z,937.31
2016-11-06T01:37:32.084Z,937.27
2016-11-06T01:38:45.373Z,937.29
2016-11-06T01:39:58.987Z,937.26
2016-11-06T01:41:12.046Z,937.28
2016-11-06T01:42:25.903Z,937.3
2016-11-06T01:43:39.505Z,937.31
2016-11-06T01:44:52.779Z,937.32
2016-11-06T01:46:37.363Z,937.37
2016-11-06T01:47:50.934Z,937.35
2016-11-06T01:49:04.535Z,937.34
2016-11-06T01:50:17.573Z,937.32
2016-11-06T01:51:31.145Z,937.28
2016-11-06T01:52:44.805Z,937.25
2016-11-06T01:53:58.453Z,937.23
2016-11-06T01:55:11.540Z,937.19
2016-11-06T01:56:25.104Z,937.15
2016-11-06T01:57:38.168Z,937.07
2016-11-06T01:58:51.221Z,937.06
2016-11-06T02:00:05.184Z,937.05
2016-11-06T02:01:18.147Z,937.07
2016-11-06T02:02:31.191Z,937.05
2016-11-06T02:03:44.702Z,937.02
2016-11-06T02:04:58.266Z,937.03
2016-11-06T02:06:11.405Z,937.01
2016-11-06T02:07:25.098Z,936.99
2016-11-06T02:08:38.574Z,936.97
2016-11-06T02:09:52.094Z,937.03
2016-11-06T02:11:05.104Z,937.04
2016-11-06T02:12:18.695Z,937.01
2016-11-06T02:13:31.713Z,937.04
2016-11-06T02:14:45.497Z,937.03
2016-11-06T02:15:58.587Z,936.97
2016-11-06T02:17:11.586Z,936.96
2016-11-06T02:18:24.588Z,936.96
2016-11-06T02:19:38.125Z,936.94
2016-11-06T02:20:50.635Z,936.86
2016-11-06T02:22:04.238Z,936.84
2016-11-06T02:23:17.851Z,936.8
2016-11-06T02:24:31.459Z,936.79
2016-11-06T02:25:45.008Z,936.79
2016-11-06T02:26:58.489Z,936.72
2016-11-06T02:28:11.526Z,936.72
2016-11-06T02:29:25.072Z,936.72
2016-11-06T02:30:38.071Z,936.7
2016-11-06T02:31:51.675Z,936.69
2016-11-06T02:33:04.738Z,936.69
2016-11-06T02:34:18.596Z,936.7
2016-11-06T02:35:32.145Z,936.7
2016-11-06T02:36:45.727Z,936.67
2016-11-06T02:37:59.335Z,936.65
2016-11-06T02:39:12.977Z,936.63
2016-11-06T02:40:26.528Z,936.58
2016-11-06T02:41:39.815Z,936.57
2016-11-06T02:43:07.339Z,936.56
2016-11-06T02:44:20.932Z,936.58
2016-11-06T02:45:33.954Z,936.57
2016-11-06T02:46:46.984Z,936.52
2016-11-06T02:48:00.611Z,936.47
2016-11-06T02:49:13.639Z,936.46
2016-11-06T02:50:26.668Z,936.5
2016-11-06T02:51:40.354Z,936.5
2016-11-06T02:52:53.862Z,936.48
2016-11-06T02:54:06.644Z,936.49
2016-11-06T02:55:20.186Z,936.45
2016-11-06T02:56:33.746Z,936.45
2016-11-06T02:57:46.901Z,936.45
2016-11-06T02:58:59.925Z,936.41
2016-11-06T03:00:13.530Z,936.42
2016-11-06T03:01:27.085Z,936.38
2016-11-06T03:02:40.723Z,936.36
2016-11-06T03:03:53.813Z,936.33
2016-11-06T03:05:07.292Z,936.3
2016-11-06T03:06:20.853Z,936.27
2016-11-06T03:07:34.457Z,936.23
2016-11-06T03:08:48.047Z,936.25
2016-11-06T03:10:01.046Z,936.25
2016-11-06T03:11:14.024Z,936.23
2016-11-06T03:12:27.056Z,936.24
2016-11-06T03:13:40.683Z,936.21
2016-11-06T03:14:54.276Z,936.18
2016-11-06T03:16:07.805Z,936.19
2016-11-06T03:17:20.914Z,936.11
2016-11-06T03:18:34.189Z,936.13
2016-11-06T03:19:47.782Z,936.09
2016-11-06T03:21:00.917Z,936.05
2016-11-06T03:22:14.255Z,936.01
2016-11-06T03:23:27.853Z,935.98
2016-11-06T03:24:41.486Z,935.99
2016-11-06T03:25:55.060Z,935.97
2016-11-06T03:27:08.691Z,935.99
2016-11-06T03:28:22.247Z,936
2016-11-06T03:29:35.864Z,935.94
2016-11-06T03:30:49.501Z,935.92
2016-11-06T03:32:02.539Z,935.88
2016-11-06T03:33:16.213Z,935.88
2016-11-06T03:34:29.841Z,935.84
2016-11-06T03:35:43.399Z,935.8
2016-11-06T03:36:56.994Z,935.76
2016-11-06T03:38:10.639Z,935.74
2016-11-06T03:39:24.257Z,935.69
2016-11-06T03:40:37.492Z,935.67
2016-11-06T03:41:50.581Z,935.65
2016-11-06T03:43:03.951Z,935.61
2016-11-06T03:44:17.566Z,935.63
2016-11-06T03:45:31.171Z,935.63
2016-11-06T03:46:44.243Z,935.56
2016-11-06T03:47:57.873Z,935.55
2016-11-06T03:49:10.927Z,935.51
2016-11-06T03:50:24.448Z,935.49
2016-11-06T03:51:37.472Z,935.49
2016-11-06T03:52:50.516Z,935.48
2016-11-06T03:54:03.031Z,935.51
2016-11-06T03:55:15.481Z,935.48
2016-11-06T03:56:29.014Z,935.49
2016-11-06T03:57:41.604Z,935.48
2016-11-06T03:58:55.254Z,935.46
2016-11-06T04:00:07.731Z,935.48
2016-11-06T04:01:21.340Z,935.46
2016-11-06T04:02:34.982Z,935.41
2016-11-06T04:03:48.485Z,935.39
2016-11-06T04:05:01.559Z,935.36
2016-11-06T04:06:15.136Z,935.32
2016-11-06T04:07:28.220Z,935.27
2016-11-06T04:08:41.808Z,935.31
2016-11-06T04:09:55.442Z,935.28
2016-11-06T04:11:08.991Z,935.31
2016-11-06T04:12:22.657Z,935.24
2016-11-06T04:13:36.245Z,935.22
2016-11-06T04:14:49.801Z,935.23
2016-11-06T04:16:03.331Z,935.19
2016-11-06T04:17:16.941Z,935.21
2016-11-06T04:18:30.032Z,935.23
2016-11-06T04:19:42.573Z,935.25
2016-11-06T04:20:56.169Z,935.24
2016-11-06T04:22:40.958Z,935.21
2016-11-06T04:23:54.292Z,935.18
2016-11-06T04:25:07.924Z,935.12
2016-11-06T04:26:21.484Z,935.12
2016-11-06T04:27:34.788Z,935.14
2016-11-06T04:28:48.317Z,935.11
2016-11-06T04:30:01.880Z,935.06
2016-11-06T04:31:14.908Z,935.1
2016-11-06T04:32:28.473Z,935.09
2016-11-06T04:33:41.991Z,935.09
2016-11-06T04:34:55.559Z,935.1
2016-11-06T04:36:09.159Z,935.04
2016-11-06T04:37:53.903Z,935
2016-11-06T04:39:06.953Z,934.96
2016-11-06T04:40:20.592Z,934.97
2016-11-06T04:41:34.332Z,934.94
2016-11-06T04:42:47.993Z,934.9
2016-11-06T04:44:01.011Z,934.86
2016-11-06T04:45:14.601Z,934.84
2016-11-06T04:46:28.227Z,934.84
2016-11-06T04:47:41.786Z,934.75
2016-11-06T04:49:26.434Z,934.72
2016-11-06T04:50:39.847Z,934.72
2016-11-06T04:51:53.002Z,934.69
2016-11-06T04:53:06.053Z,934.64
2016-11-06T04:54:19.654Z,934.62
2016-11-06T04:55:33.272Z,934.62
2016-11-06T04:57:17.981Z,934.59
2016-11-06T04:58:31.050Z,934.59
2016-11-06T04:59:44.625Z,934.55
2016-11-06T05:00:58.265Z,934.56
2016-11-06T05:02:11.921Z,934.56
2016-11-06T05:03:25.553Z,934.51
2016-11-06T05:04:39.144Z,934.45
2016-11-06T05:05:52.744Z,934.41
2016-11-06T05:07:06.375Z,934.42
2016-11-06T05:08:19.477Z,934.42
2016-11-06T05:09:32.944Z,934.44
2016-11-06T05:10:46.512Z,934.42
2016-11-06T05:12:00.164Z,934.43
2016-11-06T05:13:13.771Z,934.43
2016-11-06T05:14:26.752Z,934.37
2016-11-06T05:15:40.331Z,934.35
2016-11-06T05:16:53.379Z,934.36
2016-11-06T05:18:06.986Z,934.33
2016-11-06T05:19:20.573Z,934.32
2016-11-06T05:20:33.660Z,934.27
2016-11-06T05:21:46.962Z,934.3
2016-11-06T05:23:00.592Z,934.29
2016-11-06T05:24:14.184Z,934.3
2016-11-06T05:25:27.764Z,934.34
2016-11-06T05:26:41.361Z,934.32
2016-11-06T05:27:54.962Z,934.3
2016-11-06T05:29:07.562Z,934.32
2016-11-06T05:30:20.546Z,934.3
2016-11-06T05:31:34.157Z,934.29
2016-11-06T05:32:46.655Z,934.32
2016-11-06T05:33:59.735Z,934.31
2016-11-06T05:35:12.813Z,934.29
2016-11-06T05:36:26.366Z,934.33
2016-11-06T05:37:39.934Z,934.31
2016-11-06T05:38:53.328Z,934.29
2016-11-06T05:40:06.345Z,934.25
2016-11-06T05:41:19.677Z,934.23
2016-11-06T05:42:32.762Z,934.22
2016-11-06T05:43:45.823Z,934.21
2016-11-06T05:44:59.449Z,934.24
2016-11-06T05:46:12.957Z,934.18
2016-11-06T05:47:26.831Z,934.15
2016-11-06T05:48:40.414Z,934.15
2016-11-06T05:49:53.973Z,934.16
2016-11-06T05:51:06.489Z,934.18
2016-11-06T05:52:18.996Z,934.17
2016-11-06T05:53:32.052Z,934.19
2016-11-06T05:54:44.602Z,934.17
2016-11-06T05:55:58.213Z,934.14
2016-11-06T05:57:11.241Z,934.09
2016-11-06T05:58:24.770Z,934.08
2016-11-06T05:59:38.421Z,934.07
2016-11-06T06:00:52.022Z,934.07
2016-11-06T06:02:05.376Z,934.01
2016-11-06T06:03:18.997Z,934.03
2016-11-06T06:04:32.537Z,934.05
2016-11-06T06:05:46.112Z,934.03
2016-11-06T06:06:58.967Z,934.08
2016-11-06T06:08:11.990Z,934.08
2016-11-06T06:09:25.586Z,934.06
2016-11-06T06:10:38.594Z,934.05
2016-11-06T06:11:51.883Z,934.05
2016-11-06T06:13:05.539Z,934.05
2016-11-06T06:14:19.088Z,934.04
2016-11-06T06:15:32.120Z,934
2016-11-06T06:16:45.740Z,934.01
2016-11-06T06:18:30.441Z,933.98
2016-11-06T06:19:44.000Z,933.96
2016-11-06T06:20:57.583Z,933.96
2016-11-06T06:22:10.669Z,933.96
2016-11-06T06:23:24.250Z,933.93
2016-11-06T06:24:37.903Z,933.96
2016-11-06T06:25:51.440Z,933.98
2016-11-06T06:27:04.530Z,933.98
2016-11-06T06:28:17.689Z,933.99
2016-11-06T06:29:31.200Z,933.99
2016-11-06T06:30:44.741Z,934.04
2016-11-06T06:31:58.142Z,934.05
2016-11-06T06:33:11.126Z,934.08
2016-11-06T06:34:24.674Z,934.06
2016-11-06T06:35:38.315Z,934.03
2016-11-06T06:36:51.333Z,934.09
2016-11-06T06:38:04.370Z,934.08
2016-11-06T06:39:17.695Z,934.09
2016-11-06T06:40:30.921Z,934.09
2016-11-06T06:41:44.561Z,934.11
2016-11-06T06:42:57.632Z,934.06
2016-11-06T06:44:10.665Z,934.14
2016-11-06T06:45:24.209Z,934.11
2016-11-06T06:46:37.825Z,934.11
2016-11-06T06:47:51.485Z,934.1
2016-11-06T06:49:04.479Z,934.06
2016-11-06T06:50:18.136Z,934.03
2016-11-06T06:51:30.689Z,934.03
2016-11-06T06:52:44.232Z,934.03
2016-11-06T06:53:56.757Z,934.05
2016-11-06T06:55:10.336Z,934.03
2016-11-06T06:56:23.904Z,934.04
2016-11-06T06:57:37.468Z,934.05
2016-11-06T06:58:50.754Z,934.08
2016-11-06T07:00:04.345Z,934.08
2016-11-06T07:01:17.919Z,934.08
2016-11-06T07:02:31.228Z,934.08
2016-11-06T07:03:44.860Z,934.09
2016-11-06T07:05:28.435Z,934.1
2016-11-06T07:06:41.451Z,934.12
2016-11-06T07:07:55.040Z,934.13
2016-11-06T07:09:08.113Z,934.23
2016-11-06T07:10:21.756Z,934.23
2016-11-06T07:11:35.317Z,934.25
2016-11-06T07:12:48.853Z,934.25
2016-11-06T07:14:02.458Z,934.26
2016-11-06T07:15:47.197Z,934.26
2016-11-06T07:17:00.775Z,934.25
2016-11-06T07:18:14.425Z,934.25
2016-11-06T07:19:27.995Z,934.24
2016-11-06T07:20:41.086Z,934.24
2016-11-06T07:21:54.723Z,934.23
2016-11-06T07:23:08.266Z,934.26
2016-11-06T07:24:21.564Z,934.23
2016-11-06T07:25:35.080Z,934.27
2016-11-06T07:26:48.616Z,934.28
2016-11-06T07:28:02.154Z,934.28
2016-11-06T07:29:15.192Z,934.29
2016-11-06T07:30:28.200Z,934.32
2016-11-06T07:31:41.758Z,934.32
2016-11-06T07:32:55.319Z,934.31
2016-11-06T07:34:08.951Z,934.35
2016-11-06T07:35:21.987Z,934.26
2016-11-06T07:36:35.548Z,934.3
2016-11-06T07:37:48.629Z,934.31
2016-11-06T07:39:01.723Z,934.33
2016-11-06T07:40:15.266Z,934.35
2016-11-06T07:41:28.326Z,934.33
2016-11-06T07:42:41.955Z,934.32
2016-11-06T07:43:55.447Z,934.31
2016-11-06T07:45:09.040Z,934.36
2016-11-06T07:46:22.622Z,934.37
2016-11-06T07:47:36.142Z,934.36
2016-11-06T07:48:49.736Z,934.35
2016-11-06T07:50:03.250Z,934.36
2016-11-06T07:51:16.793Z,934.34
2016-11-06T07:52:30.390Z,934.31
2016-11-06T07:53:43.381Z,934.34
2016-11-06T07:54:57.012Z,934.4
2016-11-06T07:56:10.618Z,934.36
2016-11-06T07:57:23.837Z,934.35
2016-11-06T07:58:37.483Z,934.39
2016-11-06T07:59:50.623Z,934.4
2016-11-06T08:01:04.165Z,934.43
2016-11-06T08:02:17.715Z,934.42
2016-11-06T08:03:31.304Z,934.45
2016-11-06T08:04:44.335Z,934.46
2016-11-06T08:05:57.897Z,934.48
2016-11-06T08:07:10.912Z,934.48
2016-11-06T08:08:24.284Z,934.44
2016-11-06T08:09:37.327Z,934.47
2016-11-06T08:10:50.928Z,934.47
2016-11-06T08:12:04.593Z,934.46
2016-11-06T08:13:17.688Z,934.45
2016-11-06T08:14:31.316Z,934.49
2016-11-06T08:15:44.351Z,934.5
2016-11-06T08:16:57.704Z,934.52
2016-11-06T08:18:10.762Z,934.53
2016-11-06T08:19:24.322Z,934.56
2016-11-06T08:20:37.846Z,934.53
2016-11-06T08:21:51.413Z,934.61
2016-11-06T08:23:04.482Z,934.66
2016-11-06T08:24:18.130Z,934.69
2016-11-06T08:25:31.687Z,934.71
2016-11-06T08:26:45.296Z,934.68
2016-11-06T08:27:58.933Z,934.68
2016-11-06T08:29:12.515Z,934.7
2016-11-06T08:30:26.088Z,934.68
2016-11-06T08:31:38.040Z,934.7
2016-11-06T08:32:51.088Z,934.72
2016-11-06T08:34:04.760Z,934.72
2016-11-06T08:35:18.378Z,934.76
2016-11-06T08:36:31.443Z,934.79
2016-11-06T08:37:45.016Z,934.78
2016-11-06T08:38:58.601Z,934.83
2016-11-06T08:40:11.728Z,934.84
2016-11-06T08:41:25.365Z,934.82
2016-11-06T08:42:37.927Z,934.82
2016-11-06T08:43:51.491Z,934.81
2016-11-06T08:45:05.003Z,934.83
2016-11-06T08:46:18.102Z,934.87
2016-11-06T08:47:31.700Z,934.88
2016-11-06T08:48:45.291Z,934.86
2016-11-06T08:49:58.879Z,934.88
2016-11-06T08:51:12.469Z,934.91
2016-11-06T08:52:26.095Z,934.9
2016-11-06T08:53:39.733Z,934.89
2016-11-06T08:54:53.344Z,934.88
2016-11-06T08:56:06.893Z,934.89
2016-11-06T08:57:20.793Z,934.88
2016-11-06T08:58:34.304Z,934.91
2016-11-06T08:59:47.884Z,934.92
2016-11-06T09:01:01.465Z,934.93
2016-11-06T09:02:14.491Z,934.91
2016-11-06T09:03:28.092Z,934.95
2016-11-06T09:04:41.156Z,934.96
2016-11-06T09:05:54.682Z,934.97
2016-11-06T09:07:07.834Z,934.99
2016-11-06T09:08:21.420Z,935
2016-11-06T09:09:33.955Z,934.99
2016-11-06T09:10:47.721Z,935.03
2016-11-06T09:12:01.293Z,935.08
2016-11-06T09:13:14.923Z,935.09
2016-11-06T09:14:59.056Z,935.13
2016-11-06T09:16:12.715Z,935.12
2016-11-06T09:17:26.295Z,935.09
2016-11-06T09:18:39.876Z,935.15
2016-11-06T09:19:52.951Z,935.13
2016-11-06T09:21:06.034Z,935.15
2016-11-06T09:22:19.577Z,935.16
2016-11-06T09:23:33.100Z,935.12
2016-11-06T09:24:46.114Z,935.13
2016-11-06T09:25:59.666Z,935.15
2016-11-06T09:27:12.809Z,935.16
2016-11-06T09:28:26.389Z,935.14
2016-11-06T09:29:39.455Z,935.14
2016-11-06T09:30:52.553Z,935.13
2016-11-06T09:32:06.169Z,935.17
2016-11-06T09:33:19.681Z,935.18
2016-11-06T09:34:33.321Z,935.17
2016-11-06T09:35:46.773Z,935.17
2016-11-06T09:37:00.048Z,935.17
2016-11-06T09:38:13.715Z,935.21
2016-11-06T09:39:27.413Z,935.19
2016-11-06T09:40:41.004Z,935.17
2016-11-06T09:41:54.616Z,935.14
2016-11-06T09:43:08.175Z,935.19
2016-11-06T09:44:21.274Z,935.18
2016-11-06T09:45:34.254Z,935.19
2016-11-06T09:46:47.925Z,935.24
2016-11-06T09:48:01.543Z,935.24
2016-11-06T09:49:15.131Z,935.27
2016-11-06T09:50:28.192Z,935.27
2016-11-06T09:51:41.821Z,935.33
2016-11-06T09:52:54.891Z,935.37
2016-11-06T09:54:07.733Z,935.35
2016-11-06T09:55:21.362Z,935.32
2016-11-06T09:56:34.963Z,935.34
2016-11-06T09:57:48.599Z,935.34
2016-11-06T09:59:02.201Z,935.36
2016-11-06T10:00:15.243Z,935.33
2016-11-06T10:01:28.865Z,935.35
2016-11-06T10:02:42.532Z,935.35
2016-11-06T10:03:55.652Z,935.4
2016-11-06T10:05:09.264Z,935.39
2016-11-06T10:06:21.743Z,935.37
2016-11-06T10:07:34.837Z,935.41
2016-11-06T10:08:47.837Z,935.44
2016-11-06T10:10:01.440Z,935.44
2016-11-06T10:11:14.745Z,935.45
2016-11-06T10:12:28.314Z,935.49
2016-11-06T10:13:41.886Z,935.51
2016-11-06T10:14:53.933Z,935.47
2016-11-06T10:16:07.567Z,935.48
2016-11-06T10:17:20.304Z,935.46
2016-11-06T10:18:33.566Z,935.43
2016-11-06T10:19:46.605Z,935.45
2016-11-06T10:21:00.188Z,935.45
2016-11-06T10:22:13.747Z,935.43
2016-11-06T10:23:27.033Z,935.41
2016-11-06T10:24:40.098Z,935.41
2016-11-06T10:25:54.013Z,935.41
2016-11-06T10:27:07.023Z,935.4
2016-11-06T10:28:20.860Z,935.41
2016-11-06T10:29:34.344Z,935.4
2016-11-06T10:30:47.371Z,935.41
2016-11-06T10:32:00.635Z,935.42
2016-11-06T10:33:14.206Z,935.45
2016-11-06T10:34:27.896Z,935.41
2016-11-06T10:35:41.495Z,935.43
2016-11-06T10:36:54.566Z,935.43
2016-11-06T10:38:08.105Z,935.48
2016-11-06T10:39:21.144Z,935.44
2016-11-06T10:40:34.762Z,935.45
2016-11-06T10:41:48.364Z,935.5
2016-11-06T10:43:01.917Z,935.49
2016-11-06T10:44:15.498Z,935.45
2016-11-06T10:45:28.552Z,935.46
2016-11-06T10:46:41.336Z,935.45
2016-11-06T10:47:54.957Z,935.42
2016-11-06T10:49:08.557Z,935.45
2016-11-06T10:50:21.647Z,935.46
2016-11-06T10:51:35.316Z,935.47
2016-11-06T10:52:48.907Z,935.46
2016-11-06T10:54:01.370Z,935.44
2016-11-06T10:55:14.941Z,935.47
2016-11-06T10:56:28.568Z,935.48
2016-11-06T10:57:41.661Z,935.48
2016-11-06T10:58:54.932Z,935.46
2016-11-06T11:00:08.533Z,935.46
2016-11-06T11:01:21.601Z,935.42
2016-11-06T11:02:35.093Z,935.44
2016-11-06T11:04:19.797Z,935.45
2016-11-06T11:05:33.117Z,935.42
2016-11-06T11:06:46.674Z,935.47
2016-11-06T11:08:00.256Z,935.45
2016-11-06T11:09:13.581Z,935.48
2016-11-06T11:10:26.571Z,935.47
2016-11-06T11:11:40.162Z,935.45
2016-11-06T11:12:53.944Z,935.45
2016-11-06T11:14:07.524Z,935.47
2016-11-06T11:15:21.182Z,935.48
2016-11-06T11:16:34.774Z,935.48
2016-11-06T11:17:47.804Z,935.44
2016-11-06T11:19:01.375Z,935.48
2016-11-06T11:20:15.038Z,935.51
2016-11-06T11:21:28.644Z,935.51
2016-11-06T11:22:42.198Z,935.53
2016-11-06T11:23:55.165Z,935.52
2016-11-06T11:25:08.792Z,935.5
2016-11-06T11:26:22.250Z,935.51
2016-11-06T11:27:35.799Z,935.49
2016-11-06T11:28:48.907Z,935.52
2016-11-06T11:30:02.524Z,935.55
2016-11-06T11:31:16.195Z,935.57
2016-11-06T11:32:29.762Z,935.55
2016-11-06T11:33:43.285Z,935.54
2016-11-06T11:34:56.382Z,935.55
2016-11-06T11:36:09.088Z,935.58
2016-11-06T11:37:22.128Z,935.57
2016-11-06T11:38:35.610Z,935.54
2016-11-06T11:39:49.210Z,935.55
2016-11-06T11:41:02.858Z,935.53
2016-11-06T11:42:16.616Z,935.55
2016-11-06T11:43:30.206Z,935.51
2016-11-06T11:44:43.783Z,935.52
2016-11-06T11:45:56.292Z,935.51
2016-11-06T11:47:09.925Z,935.5
2016-11-06T11:48:22.956Z,935.53
2016-11-06T11:49:35.990Z,935.54
2016-11-06T11:50:49.648Z,935.53
2016-11-06T11:52:03.171Z,935.54
2016-11-06T11:53:16.730Z,935.54
2016-11-06T11:54:30.360Z,935.58
2016-11-06T11:55:43.971Z,935.57
2016-11-06T11:56:57.549Z,935.58
2016-11-06T11:58:11.154Z,935.55
2016-11-06T11:59:24.680Z,935.57
2016-11-06T12:00:37.761Z,935.57
2016-11-06T12:01:51.354Z,935.61
2016-11-06T12:03:04.952Z,935.61
2016-11-06T12:04:18.459Z,935.57
2016-11-06T12:05:32.109Z,935.59
2016-11-06T12:06:45.731Z,935.59
2016-11-06T12:07:59.263Z,935.59
2016-11-06T12:09:12.885Z,935.59
2016-11-06T12:10:26.563Z,935.62
2016-11-06T12:11:40.128Z,935.62
2016-11-06T12:12:53.405Z,935.58
2016-11-06T12:14:06.456Z,935.61
2016-11-06T12:15:20.024Z,935.52
2016-11-06T12:16:33.063Z,935.54
2016-11-06T12:17:45.850Z,935.58
2016-11-06T12:18:59.478Z,935.54
2016-11-06T12:20:13.163Z,935.53
2016-11-06T12:21:27.113Z,935.6
2016-11-06T12:22:40.708Z,935.6
2016-11-06T12:23:53.965Z,935.59
2016-11-06T12:25:07.566Z,935.58
2016-11-06T12:26:21.153Z,935.59
2016-11-06T12:27:34.741Z,935.59
2016-11-06T12:28:48.373Z,935.6
2016-11-06T12:30:01.976Z,935.61
2016-11-06T12:31:15.583Z,935.55
2016-11-06T12:32:28.689Z,935.56
2016-11-06T12:33:41.755Z,935.57
2016-11-06T12:34:55.347Z,935.53
2016-11-06T12:36:08.866Z,935.53
2016-11-06T12:37:22.464Z,935.51
2016-11-06T12:38:35.997Z,935.49
2016-11-06T12:39:49.721Z,935.46
2016-11-06T12:41:03.364Z,935.44
2016-11-06T12:42:16.377Z,935.41
2016-11-06T12:43:29.648Z,935.4
2016-11-06T12:44:43.160Z,935.41
2016-11-06T12:45:56.586Z,935.4
2016-11-06T12:47:09.632Z,935.42
2016-11-06T12:48:22.722Z,935.4
2016-11-06T12:49:35.816Z,935.41
2016-11-06T12:50:49.743Z,935.36
2016-11-06T12:52:03.314Z,935.36
2016-11-06T12:53:16.619Z,935.34
2016-11-06T12:54:30.241Z,935.33
2016-11-06T12:55:43.847Z,935.38
2016-11-06T12:56:57.389Z,935.31
2016-11-06T12:58:10.997Z,935.26
2016-11-06T12:59:24.251Z,935.27
2016-11-06T13:00:37.294Z,935.26
2016-11-06T13:01:50.970Z,935.29
2016-11-06T13:03:04.593Z,935.26
2016-11-06T13:04:18.184Z,935.25
2016-11-06T13:05:31.414Z,935.22
2016-11-06T13:06:45.028Z,935.23
2016-11-06T13:07:58.698Z,935.21
2016-11-06T13:09:11.683Z,935.15
2016-11-06T13:10:25.316Z,935.18
2016-11-06T13:11:38.391Z,935.18
2016-11-06T13:12:51.453Z,935.15
2016-11-06T13:14:05.060Z,935.14
2016-11-06T13:15:18.110Z,935.14
2016-11-06T13:16:31.760Z,935.16
2016-11-06T13:17:45.299Z,935.16
2016-11-06T13:18:59.027Z,935.12
2016-11-06T13:20:12.105Z,935.09
2016-11-06T13:21:25.688Z,935.08
2016-11-06T13:22:37.746Z,935.07
2016-11-06T13:23:51.314Z,935.07
2016-11-06T13:25:04.322Z,935.04
2016-11-06T13:26:17.922Z,935.03
2016-11-06T13:27:30.169Z,935.01
2016-11-06T13:28:43.771Z,935.04
2016-11-06T13:29:56.121Z,935.06
2016-11-06T13:31:09.709Z,934.98
2016-11-06T13:32:22.973Z,934.99
2016-11-06T13:33:36.034Z,934.99
2016-11-06T13:34:49.775Z,935
2016-11-06T13:36:03.367Z,934.99
2016-11-06T13:37:16.377Z,935.01
2016-11-06T13:38:30.273Z,934.93
2016-11-06T13:39:43.842Z,934.91
2016-11-06T13:40:57.355Z,934.87
2016-11-06T13:42:10.886Z,934.85
2016-11-06T13:43:24.495Z,934.88
2016-11-06T13:44:37.029Z,934.85
2016-11-06T13:45:50.523Z,934.88
2016-11-06T13:47:04.157Z,934.85
2016-11-06T13:48:18.114Z,934.83
2016-11-06T13:49:31.694Z,934.82
2016-11-06T13:50:45.218Z,934.86
2016-11-06T13:51:58.699Z,934.79
2016-11-06T13:53:12.285Z,934.79
2016-11-06T13:54:25.108Z,934.77
2016-11-06T13:55:38.768Z,934.77
2016-11-06T13:56:51.767Z,934.68
2016-11-06T13:58:05.337Z,934.69
2016-11-06T13:59:17.822Z,934.66
2016-11-06T14:00:31.429Z,934.66
2016-11-06T14:01:45.036Z,934.63
2016-11-06T14:02:58.581Z,934.67
2016-11-06T14:04:12.260Z,934.69
2016-11-06T14:05:25.251Z,934.61
2016-11-06T14:06:38.911Z,934.6
2016-11-06T14:07:52.542Z,934.58
2016-11-06T14:09:05.567Z,934.52
2016-11-06T14:10:18.854Z,934.51
2016-11-06T14:13:17.058Z,934.56
2016-11-06T14:14:30.564Z,934.54
2016-11-06T14:15:44.204Z,934.51
2016-11-06T14:16:56.187Z,934.49
2016-11-06T14:18:09.239Z,934.44
2016-11-06T14:19:22.804Z,934.51
2016-11-06T14:20:36.751Z,934.43
2016-11-06T14:22:20.990Z,934.42
2016-11-06T14:23:34.584Z,934.36
2016-11-06T14:24:48.243Z,934.38
2016-11-06T14:26:01.586Z,934.34
2016-11-06T14:27:15.117Z,934.37
2016-11-06T14:28:28.255Z,934.29
2016-11-06T14:29:41.557Z,934.3
2016-11-06T14:30:53.646Z,934.28
2016-11-06T14:32:07.435Z,934.26
2016-11-06T14:33:20.288Z,934.24
2016-11-06T14:34:33.885Z,934.24
2016-11-06T14:35:46.400Z,934.21
2016-11-06T14:37:00.406Z,934.24
2016-11-06T14:38:14.093Z,934.24
2016-11-06T14:39:27.707Z,934.22
2016-11-06T14:40:41.348Z,934.19
2016-11-06T14:41:54.475Z,934.18
2016-11-06T14:43:07.549Z,934.11
2016-11-06T14:44:21.120Z,934.08
2016-11-06T14:45:34.779Z,934.11
2016-11-06T14:46:48.092Z,934.15
2016-11-06T14:48:01.655Z,934.09
2016-11-06T14:49:14.742Z,934.09
2016-11-06T14:50:27.515Z,934.06
2016-11-06T14:51:40.527Z,934.09
2016-11-06T14:52:54.241Z,934.04
2016-11-06T14:54:07.823Z,934
2016-11-06T14:55:21.389Z,933.96
2016-11-06T14:56:34.909Z,933.98
2016-11-06T14:57:48.608Z,934.04
2016-11-06T14:59:01.585Z,933.98
2016-11-06T15:00:15.106Z,933.95
2016-11-06T15:01:28.701Z,933.92
2016-11-06T15:02:42.222Z,933.93
2016-11-06T15:03:55.303Z,933.92
2016-11-06T15:05:08.344Z,933.91
2016-11-06T15:06:21.899Z,933.89
2016-11-06T15:07:35.549Z,933.9
2016-11-06T15:08:48.060Z,933.91
2016-11-06T15:10:01.699Z,933.78
2016-11-06T15:11:15.338Z,933.81
2016-11-06T15:12:28.963Z,933.75
2016-11-06T15:13:42.637Z,933.77
2016-11-06T15:14:56.155Z,933.68
2016-11-06T15:16:09.171Z,933.69
2016-11-06T15:17:22.274Z,933.71
2016-11-06T15:18:35.937Z,933.69
2016-11-06T15:19:48.969Z,933.66
2016-11-06T15:21:02.505Z,933.65
2016-11-06T15:22:16.217Z,933.69
2016-11-06T15:23:29.775Z,933.69
2016-11-06T15:24:43.349Z,933.63
2016-11-06T15:25:57.195Z,933.57